Time;durP1;ratioP1;P1;durP2;ratioP2;P2;SDS_P1;SDS_P2;PMS_P1;PMS_P2;Temp;Humidity;BMP_temperature;BMP_pressure;BME280_temperature;BME280_humidity;BME280_pressure;Samples;Min_cycle;Max_cycle;Signal;HPM_P1;HPM_P2
2023/07/27 00:01:43;;;;;;;4.57;2.42;;;14.60;62.00;;;;;;5014918;28;20018;-77
2023/07/27 00:04:10;;;;;;;8.30;2.80;;;14.70;62.50;;;;;;5010295;28;20068;-76
2023/07/27 00:06:38;;;;;;;5.50;2.90;;;14.90;61.80;;;;;;5029144;28;20055;-76
2023/07/27 00:09:05;;;;;;;5.95;2.72;;;15.00;61.50;;;;;;5013659;28;20462;-77
2023/07/27 00:11:33;;;;;;;5.53;2.47;;;15.20;61.40;;;;;;5013510;28;20048;-77
2023/07/27 00:14:00;;;;;;;5.05;2.30;;;15.30;61.10;;;;;;5011486;28;20065;-76
2023/07/27 00:16:27;;;;;;;7.85;3.55;;;15.50;60.60;;;;;;5013360;28;20038;-77
2023/07/27 00:18:55;;;;;;;6.68;2.50;;;15.70;60.10;;;;;;5013106;28;20143;-78
2023/07/27 00:21:22;;;;;;;5.13;2.25;;;15.70;59.00;;;;;;5012633;28;20057;-77
2023/07/27 00:23:50;;;;;;;5.45;2.30;;;15.90;59.60;;;;;;5013799;28;20030;-76
2023/07/27 00:26:17;;;;;;;3.45;2.10;;;16.10;59.50;;;;;;5005771;28;20109;-77
2023/07/27 00:28:45;;;;;;;7.50;2.35;;;16.20;58.90;;;;;;5012466;28;20485;-76
2023/07/27 00:31:12;;;;;;;2.33;2.03;;;16.30;59.00;;;;;;5012784;28;20045;-79
2023/07/27 00:33:39;;;;;;;3.75;2.20;;;16.40;58.80;;;;;;5011875;28;20022;-78
2023/07/27 00:36:07;;;;;;;9.07;2.90;;;16.50;58.70;;;;;;5009307;28;20124;-78
2023/07/27 00:38:34;;;;;;;6.35;2.65;;;16.70;57.80;;;;;;5012680;28;20042;-79
2023/07/27 00:41:05;;;;;;;5.07;2.28;;;16.90;58.10;;;;;;5013777;28;20083;-79
2023/07/27 00:43:32;;;;;;;8.05;2.70;;;17.20;57.90;;;;;;5007483;28;20476;-77
2023/07/27 00:46:00;;;;;;;5.18;2.72;;;17.20;57.70;;;;;;5008702;28;20025;-79
2023/07/27 00:48:28;;;;;;;6.75;2.80;;;17.20;57.20;;;;;;5004285;28;20029;-76
2023/07/27 00:50:56;;;;;;;7.85;2.80;;;17.10;58.00;;;;;;5008010;28;20026;-76
2023/07/27 00:53:24;;;;;;;7.50;3.42;;;17.20;58.40;;;;;;5003580;28;20034;-75
2023/07/27 00:55:51;;;;;;;10.00;3.10;;;17.30;57.50;;;;;;5012448;28;20041;-75
2023/07/27 00:58:19;;;;;;;4.88;3.25;;;17.40;57.70;;;;;;5012964;28;20129;-77
2023/07/27 01:00:46;;;;;;;8.82;3.50;;;17.40;58.10;;;;;;5008462;28;20112;-76
2023/07/27 01:03:14;;;;;;;5.65;3.78;;;17.60;57.80;;;;;;5005642;28;20032;-76
2023/07/27 01:05:41;;;;;;;5.35;3.65;;;17.80;57.40;;;;;;5004079;28;20122;-76
2023/07/27 01:08:09;;;;;;;5.10;3.53;;;17.90;57.10;;;;;;5004011;28;20034;-78
2023/07/27 01:11:02;;;;;;;6.72;3.70;;;17.80;57.40;;;;;;5008920;28;20500;-75
2023/07/27 01:13:30;;;;;;;6.18;3.90;;;17.90;57.70;;;;;;5012215;28;20022;-76
2023/07/27 01:16:02;;;;;;;8.68;3.67;;;17.80;57.30;;;;;;5011034;28;20490;-77
2023/07/27 01:18:48;;;;;;;5.53;3.80;;;17.80;57.80;;;;;;5003575;28;20033;-76
2023/07/27 01:21:24;;;;;;;5.78;3.90;;;17.80;58.30;;;;;;5012386;28;20083;-76
2023/07/27 01:24:25;;;;;;;5.55;3.33;;;17.80;58.30;;;;;;5011994;28;20092;-76
2023/07/27 01:26:58;;;;;;;7.15;3.97;;;18.00;58.90;;;;;;5020632;28;20042;-75
2023/07/27 01:29:38;;;;;;;10.07;4.05;;;18.30;58.00;;;;;;5005787;28;20032;-76
2023/07/27 01:32:06;;;;;;;9.10;4.20;;;18.40;57.90;;;;;;5011042;28;20079;-76
2023/07/27 01:34:38;;;;;;;8.48;4.65;;;18.70;57.20;;;;;;5027591;28;20497;-77
2023/07/27 01:37:09;;;;;;;7.05;4.05;;;18.80;57.60;;;;;;5007089;28;20149;-78
2023/07/27 01:39:51;;;;;;;7.55;3.65;;;19.00;57.60;;;;;;5009846;28;20046;-79
2023/07/27 01:42:20;;;;;;;9.18;4.45;;;19.00;57.50;;;;;;5023956;28;20626;-80
2023/07/27 01:44:49;;;;;;;6.57;4.05;;;19.20;56.90;;;;;;5012805;28;20480;-78
2023/07/27 01:47:18;;;;;;;7.38;4.35;;;19.30;56.70;;;;;;5012211;28;20646;-79
2023/07/27 01:49:46;;;;;;;10.00;4.13;;;19.40;56.10;;;;;;5027298;28;20543;-80
2023/07/27 01:52:16;;;;;;;8.27;4.45;;;19.50;56.40;;;;;;5012386;28;20073;-80
2023/07/27 01:54:45;;;;;;;10.95;4.13;;;19.70;56.30;;;;;;5012841;28;20030;-79
2023/07/27 01:57:13;;;;;;;5.88;4.53;;;19.80;56.10;;;;;;5013244;28;20033;-79
2023/07/27 01:59:41;;;;;;;8.15;4.93;;;19.80;56.20;;;;;;5008237;28;20029;-78
2023/07/27 02:02:09;;;;;;;7.75;4.03;;;19.80;55.40;;;;;;5010734;28;20380;-76
2023/07/27 02:04:36;;;;;;;8.77;4.22;;;19.70;56.10;;;;;;5010866;28;20029;-77
2023/07/27 02:07:04;;;;;;;8.05;4.05;;;19.70;56.40;;;;;;5011660;28;20022;-78
2023/07/27 02:09:31;;;;;;;8.20;3.85;;;19.70;56.80;;;;;;5011570;28;20072;-79
2023/07/27 02:12:07;;;;;;;9.75;3.65;;;19.70;56.70;;;;;;5016191;28;20514;-76
2023/07/27 02:14:50;;;;;;;8.48;3.72;;;19.70;57.50;;;;;;5017133;28;20041;-79
2023/07/27 02:17:23;;;;;;;8.48;3.65;;;19.80;57.90;;;;;;5015942;28;20026;-83
2023/07/27 02:19:56;;;;;;;8.77;4.00;;;19.80;58.30;;;;;;5016247;28;20065;-83
2023/07/27 02:22:25;;;;;;;4.50;2.80;;;19.70;59.00;;;;;;5016075;28;20025;-80
2023/07/27 02:24:53;;;;;;;8.77;3.30;;;19.70;59.30;;;;;;5015731;28;20393;-80
2023/07/27 02:27:21;;;;;;;5.45;3.20;;;19.60;59.70;;;;;;5015908;28;20080;-84
2023/07/27 02:29:48;;;;;;;4.28;3.10;;;19.70;60.00;;;;;;5009917;28;20054;-82
2023/07/27 02:32:15;;;;;;;5.72;2.83;;;19.60;60.20;;;;;;5009153;28;20029;-77
2023/07/27 02:34:43;;;;;;;7.40;2.67;;;19.70;59.90;;;;;;5010696;28;20452;-81
2023/07/27 02:37:10;;;;;;;5.53;2.70;;;19.70;60.40;;;;;;5016207;28;20022;-83
2023/07/27 02:39:38;;;;;;;5.90;3.33;;;19.70;59.80;;;;;;5033976;28;20424;-83
2023/07/27 02:42:06;;;;;;;6.40;3.10;;;19.70;59.70;;;;;;5026892;28;20030;-84
2023/07/27 02:44:33;;;;;;;3.88;2.70;;;19.60;59.50;;;;;;5015969;28;20087;-82
2023/07/27 02:47:01;;;;;;;6.70;2.80;;;19.60;60.00;;;;;;5013226;28;20094;-82
2023/07/27 02:49:28;;;;;;;14.27;3.47;;;19.60;59.70;;;;;;5013773;28;20373;-80
2023/07/27 02:51:55;;;;;;;8.40;3.40;;;19.60;60.00;;;;;;5008349;28;20030;-81
2023/07/27 02:54:23;;;;;;;6.60;2.67;;;19.70;59.50;;;;;;4996391;28;20035;-82
2023/07/27 02:56:50;;;;;;;6.15;3.17;;;19.60;60.00;;;;;;4996371;28;20482;-82
2023/07/27 02:59:18;;;;;;;4.22;2.20;;;19.60;59.70;;;;;;5006715;28;20032;-83
2023/07/27 03:01:45;;;;;;;4.60;2.55;;;19.70;59.10;;;;;;5013492;28;20026;-82
2023/07/27 03:04:12;;;;;;;3.95;2.20;;;19.70;59.30;;;;;;5013681;28;20489;-81
2023/07/27 03:06:40;;;;;;;5.18;2.50;;;19.70;59.60;;;;;;5014658;28;20030;-81
2023/07/27 03:09:07;;;;;;;4.43;2.42;;;19.70;59.40;;;;;;5023305;28;20488;-78
2023/07/27 03:11:39;;;;;;;3.85;2.40;;;19.70;59.40;;;;;;5014633;28;20049;-81
2023/07/27 03:14:07;;;;;;;5.35;2.38;;;19.70;58.50;;;;;;5015255;28;20120;-83
2023/07/27 03:16:34;;;;;;;7.93;2.33;;;19.90;58.90;;;;;;5015119;28;20030;-82
2023/07/27 03:19:02;;;;;;;5.20;2.42;;;19.90;57.60;;;;;;5013390;28;20021;-82
2023/07/27 03:21:30;;;;;;;7.70;2.30;;;20.00;56.90;;;;;;5015477;28;20025;-82
2023/07/27 03:23:57;;;;;;;3.42;2.13;;;19.90;57.50;;;;;;5023505;28;20469;-84
2023/07/27 03:26:25;;;;;;;4.63;2.80;;;19.90;58.10;;;;;;5002458;28;20066;-81
2023/07/27 03:28:52;;;;;;;6.78;2.78;;;20.00;58.00;;;;;;5002069;28;20026;-83
2023/07/27 03:31:24;;;;;;;4.20;2.55;;;20.00;58.30;;;;;;5035045;28;20530;-84
2023/07/27 03:33:52;;;;;;;6.18;2.63;;;20.10;58.10;;;;;;5034124;28;20041;-82
2023/07/27 03:36:22;;;;;;;6.35;2.60;;;20.20;57.50;;;;;;5029321;28;20029;-79
2023/07/27 03:38:49;;;;;;;6.45;2.90;;;20.20;57.60;;;;;;5014994;28;20017;-83
2023/07/27 03:41:17;;;;;;;7.13;2.35;;;20.20;58.20;;;;;;5011887;28;20038;-83
2023/07/27 03:43:44;;;;;;;6.63;2.92;;;20.20;58.50;;;;;;5030558;28;20413;-83
2023/07/27 03:46:12;;;;;;;5.28;3.17;;;20.30;58.60;;;;;;5017347;28;20113;-78
2023/07/27 03:48:39;;;;;;;4.35;2.63;;;20.30;59.00;;;;;;5020240;28;20452;-83
2023/07/27 03:51:08;;;;;;;4.70;2.55;;;20.50;58.10;;;;;;5020735;28;20053;-81
2023/07/27 03:53:35;;;;;;;6.50;2.72;;;20.50;58.70;;;;;;5016627;28;20026;-79
2023/07/27 03:56:04;;;;;;;8.50;3.00;;;20.50;59.00;;;;;;5020895;28;20121;-81
2023/07/27 03:58:35;;;;;;;8.85;3.08;;;20.40;58.80;;;;;;5028056;28;20037;-81
2023/07/27 04:01:03;;;;;;;7.82;2.65;;;20.50;59.60;;;;;;5014272;28;20432;-83
2023/07/27 04:03:31;;;;;;;9.25;3.00;;;20.50;59.70;;;;;;5016347;28;20057;-82
2023/07/27 04:05:58;;;;;;;6.00;2.53;;;20.50;60.10;;;;;;5013646;28;20117;-83
2023/07/27 04:08:25;;;;;;;6.50;2.80;;;20.60;60.40;;;;;;5012832;28;20029;-81
2023/07/27 04:10:53;;;;;;;4.78;2.60;;;20.60;60.10;;;;;;5016080;28;20484;-83
2023/07/27 04:13:20;;;;;;;5.82;2.58;;;20.60;59.60;;;;;;5015454;28;20072;-81
2023/07/27 04:15:48;;;;;;;5.50;2.90;;;20.70;59.50;;;;;;5019680;28;20034;-80
2023/07/27 04:18:15;;;;;;;4.22;2.40;;;20.70;59.90;;;;;;5010361;28;20085;-83
2023/07/27 04:20:42;;;;;;;7.22;2.70;;;20.80;58.90;;;;;;5015859;28;20034;-83
2023/07/27 04:23:10;;;;;;;7.43;2.40;;;20.80;59.20;;;;;;5021432;28;20022;-83
2023/07/27 04:25:37;;;;;;;7.72;2.38;;;20.70;59.60;;;;;;5014435;28;20061;-77
2023/07/27 04:28:05;;;;;;;7.50;2.17;;;20.80;60.20;;;;;;5018981;28;20029;-85
2023/07/27 04:30:32;;;;;;;3.40;1.83;;;20.70;60.50;;;;;;5014065;28;20053;-82
2023/07/27 04:32:59;;;;;;;5.38;2.13;;;20.60;60.80;;;;;;5023595;28;20030;-79
2023/07/27 04:35:27;;;;;;;6.85;2.10;;;20.60;61.00;;;;;;5011422;28;20092;-80
2023/07/27 04:37:54;;;;;;;4.45;2.17;;;20.60;61.50;;;;;;5026781;28;20022;-83
2023/07/27 04:40:21;;;;;;;6.25;2.58;;;20.60;61.40;;;;;;5014694;28;20049;-81
2023/07/27 04:42:52;;;;;;;7.32;2.30;;;20.60;61.40;;;;;;5024359;28;20021;-81
2023/07/27 04:45:20;;;;;;;4.55;2.33;;;20.60;60.80;;;;;;5001405;28;20057;-83
2023/07/27 04:47:47;;;;;;;4.32;2.50;;;20.60;60.90;;;;;;5007166;28;20030;-83
2023/07/27 04:50:14;;;;;;;4.40;2.15;;;20.60;61.10;;;;;;5027034;28;20074;-83
2023/07/27 04:52:42;;;;;;;3.92;2.42;;;20.60;61.50;;;;;;5017600;28;20105;-83
2023/07/27 04:55:09;;;;;;;5.25;2.67;;;20.60;61.60;;;;;;5016758;28;20053;-82
2023/07/27 04:57:37;;;;;;;5.75;2.50;;;20.60;61.70;;;;;;5010634;28;20083;-83
2023/07/27 05:00:05;;;;;;;5.78;3.03;;;20.70;61.10;;;;;;5016016;28;20022;-84
2023/07/27 05:02:32;;;;;;;6.50;2.72;;;20.60;61.40;;;;;;5007577;28;20034;-82
2023/07/27 05:04:59;;;;;;;6.15;2.92;;;20.50;61.90;;;;;;5012359;28;20447;-79
2023/07/27 05:07:27;;;;;;;5.90;2.70;;;20.50;62.30;;;;;;5028087;28;20468;-79
2023/07/27 05:09:54;;;;;;;9.27;3.33;;;20.50;62.30;;;;;;5010704;28;20068;-82
2023/07/27 05:12:21;;;;;;;6.55;2.90;;;20.50;62.60;;;;;;5017372;28;20127;-81
2023/07/27 05:14:49;;;;;;;6.75;3.22;;;20.40;62.80;;;;;;5014139;28;20022;-82
2023/07/27 05:17:35;;;;;;;7.07;3.38;;;20.30;63.00;;;;;;5078158;27;20400;-79
2023/07/27 05:20:04;;;;;;;8.55;3.75;;;20.20;64.30;;;;;;5069854;28;20097;-81
2023/07/27 05:22:31;;;;;;;5.32;2.97;;;20.30;64.20;;;;;;5074702;28;20032;-81
2023/07/27 05:25:03;;;;;;;10.13;3.60;;;20.20;64.60;;;;;;5075546;28;20028;-83
2023/07/27 05:27:30;;;;;;;7.68;3.00;;;20.20;65.00;;;;;;5068522;28;20048;-82
2023/07/27 05:30:01;;;;;;;6.05;2.90;;;20.20;65.00;;;;;;5068323;28;20483;-82
2023/07/27 05:32:28;;;;;;;6.80;3.30;;;20.20;65.40;;;;;;5077655;28;20020;-83
2023/07/27 05:34:56;;;;;;;6.65;3.33;;;20.20;65.20;;;;;;5073475;28;20374;-80
2023/07/27 05:37:23;;;;;;;9.48;3.67;;;20.00;65.30;;;;;;5077665;28;20039;-82
2023/07/27 05:39:50;;;;;;;8.85;3.40;;;19.90;65.80;;;;;;5077910;28;20386;-81
2023/07/27 05:42:18;;;;;;;9.48;3.40;;;19.90;66.20;;;;;;5066974;28;20024;-83
2023/07/27 05:44:45;;;;;;;8.23;3.08;;;19.90;66.60;;;;;;5068701;28;20123;-82
2023/07/27 05:47:13;;;;;;;6.45;3.47;;;19.80;66.70;;;;;;5058232;28;20534;-81
2023/07/27 05:49:41;;;;;;;8.13;3.30;;;19.70;67.00;;;;;;5051944;28;20067;-80
2023/07/27 05:52:08;;;;;;;5.75;3.10;;;19.60;67.30;;;;;;5065907;28;20056;-78
2023/07/27 05:54:36;;;;;;;11.48;4.00;;;19.50;67.50;;;;;;5067719;28;20027;-83
2023/07/27 05:57:03;;;;;;;6.07;3.00;;;19.50;67.70;;;;;;5086543;28;20036;-81
2023/07/27 05:59:30;;;;;;;4.78;2.63;;;19.40;68.00;;;;;;5063924;28;20064;-81
2023/07/27 06:01:58;;;;;;;11.02;4.03;;;19.40;68.20;;;;;;5066939;28;20025;-82
2023/07/27 06:04:27;;;;;;;4.30;2.90;;;19.30;68.40;;;;;;5075389;28;20355;-82
2023/07/27 06:06:54;;;;;;;14.07;3.90;;;19.30;68.00;;;;;;5086387;28;20031;-83
2023/07/27 06:09:22;;;;;;;6.50;3.67;;;19.30;68.60;;;;;;5069307;28;20151;-81
2023/07/27 06:11:49;;;;;;;8.25;3.55;;;19.30;68.50;;;;;;5061277;28;20033;-81
2023/07/27 06:14:17;;;;;;;5.53;3.03;;;19.20;68.70;;;;;;5073718;28;20032;-81
2023/07/27 06:16:44;;;;;;;9.13;3.60;;;19.20;69.00;;;;;;5080711;28;20467;-80
2023/07/27 06:19:12;;;;;;;6.40;3.00;;;19.20;69.20;;;;;;5086753;28;20024;-82
2023/07/27 06:21:39;;;;;;;6.45;3.75;;;19.10;69.30;;;;;;5080962;28;20036;-80
2023/07/27 06:24:08;;;;;;;9.93;3.40;;;19.10;69.80;;;;;;5069859;28;20024;-82
2023/07/27 06:26:35;;;;;;;6.38;3.38;;;19.10;69.90;;;;;;5064484;28;20122;-82
2023/07/27 06:29:03;;;;;;;7.15;3.80;;;19.10;69.80;;;;;;5048064;28;20029;-78
2023/07/27 06:31:30;;;;;;;10.48;4.10;;;19.00;69.80;;;;;;5056074;28;20028;-82
2023/07/27 06:33:58;;;;;;;8.68;3.63;;;18.80;69.90;;;;;;5059254;28;20494;-81
2023/07/27 06:36:25;;;;;;;11.57;4.00;;;18.80;70.00;;;;;;5062270;28;20488;-82
2023/07/27 06:38:53;;;;;;;8.57;3.42;;;18.80;70.00;;;;;;5053342;28;20025;-82
2023/07/27 06:41:25;;;;;;;8.02;3.30;;;18.70;70.20;;;;;;5042190;28;20029;-82
2023/07/27 06:43:52;;;;;;;8.73;3.42;;;18.70;70.30;;;;;;5057304;28;20047;-80
2023/07/27 06:46:24;;;;;;;9.68;3.72;;;18.60;70.30;;;;;;5054717;28;20035;-78
2023/07/27 06:48:52;;;;;;;5.70;3.55;;;18.60;70.50;;;;;;5057058;28;20085;-82
2023/07/27 06:51:22;;;;;;;11.80;3.95;;;18.50;70.50;;;;;;5059440;28;20033;-81
2023/07/27 06:53:50;;;;;;;6.10;3.58;;;18.50;70.60;;;;;;5067781;28;20035;-79
2023/07/27 06:56:20;;;;;;;8.20;2.95;;;18.50;70.60;;;;;;5058325;28;20027;-80
2023/07/27 06:58:48;;;;;;;9.98;3.80;;;18.40;70.80;;;;;;5052347;28;20490;-85
2023/07/27 07:01:15;;;;;;;5.97;3.88;;;18.40;70.70;;;;;;5049706;28;20041;-80
2023/07/27 07:03:43;;;;;;;5.95;3.42;;;18.40;70.70;;;;;;5049316;28;20095;-81
2023/07/27 07:06:10;;;;;;;6.07;3.00;;;18.30;70.80;;;;;;5051699;28;20025;-82
2023/07/27 07:08:38;;;;;;;8.35;3.72;;;18.20;70.90;;;;;;5058206;28;20067;-81
2023/07/27 07:11:06;;;;;;;5.00;3.40;;;18.20;71.00;;;;;;5056001;28;20049;-81
2023/07/27 07:13:33;;;;;;;7.50;3.80;;;18.20;71.10;;;;;;5050992;28;20041;-80
2023/07/27 07:16:01;;;;;;;11.55;4.32;;;18.10;71.30;;;;;;5056576;28;20076;-81
2023/07/27 07:18:28;;;;;;;10.32;4.10;;;18.00;71.50;;;;;;5055969;28;20534;-82
2023/07/27 07:20:56;;;;;;;7.25;3.50;;;18.00;71.60;;;;;;5049517;28;20028;-78
2023/07/27 07:23:23;;;;;;;9.48;4.60;;;17.90;71.70;;;;;;5048851;28;20047;-84
2023/07/27 07:25:51;;;;;;;7.40;3.65;;;17.90;71.80;;;;;;5056766;28;20353;-77
2023/07/27 07:28:18;;;;;;;9.30;3.60;;;17.80;71.90;;;;;;5052124;28;20029;-78
2023/07/27 07:30:52;;;;;;;8.93;3.70;;;17.80;72.00;;;;;;5048144;28;21080;-84
2023/07/27 07:33:21;;;;;;;8.15;3.83;;;17.80;72.20;;;;;;5051491;28;20037;-76
2023/07/27 07:35:48;;;;;;;6.53;3.70;;;17.70;72.40;;;;;;5048943;28;20041;-75
2023/07/27 07:38:16;;;;;;;7.93;3.58;;;17.70;72.60;;;;;;5053876;28;20037;-79
2023/07/27 07:40:46;;;;;;;11.48;4.93;;;17.60;72.70;;;;;;5044665;28;20481;-76
2023/07/27 07:43:13;;;;;;;6.72;3.70;;;17.60;73.00;;;;;;5051420;28;20038;-80
2023/07/27 07:45:42;;;;;;;8.13;3.97;;;17.60;72.90;;;;;;5051664;28;20078;-80
2023/07/27 07:48:09;;;;;;;4.95;3.70;;;17.50;73.00;;;;;;5033711;28;20052;-80
2023/07/27 07:50:37;;;;;;;7.68;3.78;;;17.50;73.00;;;;;;5037135;28;20033;-80
2023/07/27 07:53:08;;;;;;;11.05;4.40;;;17.50;73.20;;;;;;5052591;28;20383;-80
2023/07/27 07:55:38;;;;;;;11.57;4.53;;;17.40;73.30;;;;;;5053221;28;20029;-79
2023/07/27 07:58:06;;;;;;;8.23;4.93;;;17.40;73.60;;;;;;5053470;28;20476;-79
2023/07/27 08:00:33;;;;;;;10.45;5.75;;;17.30;73.60;;;;;;5052741;28;20420;-80
2023/07/27 08:03:01;;;;;;;12.77;5.10;;;17.30;73.80;;;;;;5053220;28;20025;-79
2023/07/27 08:05:28;;;;;;;6.53;4.20;;;17.20;73.90;;;;;;5051965;28;20111;-77
2023/07/27 08:07:55;;;;;;;10.57;4.88;;;17.20;73.90;;;;;;5053130;28;20032;-79
2023/07/27 08:10:23;;;;;;;9.38;4.65;;;17.20;74.20;;;;;;5053586;28;20021;-80
2023/07/27 08:12:51;;;;;;;9.68;5.05;;;17.20;74.40;;;;;;5053310;28;20391;-80
2023/07/27 08:15:18;;;;;;;16.42;5.85;;;17.20;74.50;;;;;;5053048;28;20044;-81
2023/07/27 08:17:45;;;;;;;11.25;5.43;;;17.10;74.60;;;;;;5053418;28;20163;-81
2023/07/27 08:20:13;;;;;;;8.60;4.65;;;17.10;74.80;;;;;;5053478;28;20029;-80
2023/07/27 08:22:40;;;;;;;10.05;5.03;;;17.00;74.80;;;;;;5053489;28;20055;-81
2023/07/27 08:25:08;;;;;;;18.08;5.47;;;17.00;75.00;;;;;;5052095;28;20056;-80
2023/07/27 08:27:35;;;;;;;9.45;5.32;;;17.00;74.90;;;;;;5052315;28;20028;-79
2023/07/27 08:30:03;;;;;;;9.80;5.18;;;17.00;75.00;;;;;;5052069;28;20063;-81
2023/07/27 08:32:31;;;;;;;12.50;5.32;;;17.00;75.00;;;;;;5053211;28;20036;-80
2023/07/27 08:34:58;;;;;;;10.77;6.10;;;16.90;75.10;;;;;;5053195;28;20025;-80
2023/07/27 08:37:26;;;;;;;8.35;5.40;;;16.90;75.20;;;;;;5052760;28;20056;-79
2023/07/27 08:39:54;;;;;;;10.45;5.32;;;16.90;75.10;;;;;;5051916;28;20116;-79
2023/07/27 08:42:21;;;;;;;9.82;5.00;;;16.90;74.90;;;;;;5050601;28;20029;-80
2023/07/27 08:44:49;;;;;;;8.38;4.43;;;16.80;75.00;;;;;;5052946;28;20528;-80
2023/07/27 08:47:17;;;;;;;8.85;4.60;;;16.80;74.80;;;;;;5052589;28;20075;-81
2023/07/27 08:49:45;;;;;;;9.25;4.65;;;16.80;75.00;;;;;;5051082;28;20135;-81
2023/07/27 08:52:16;;;;;;;9.85;4.53;;;16.80;74.80;;;;;;5052228;28;20012;-82
2023/07/27 08:54:44;;;;;;;10.43;4.40;;;16.70;74.80;;;;;;5053063;28;20033;-81
2023/07/27 08:57:11;;;;;;;9.80;4.63;;;16.70;74.70;;;;;;5051941;28;20422;-81
2023/07/27 08:59:42;;;;;;;9.43;4.07;;;16.70;74.70;;;;;;5051690;28;20049;-83
2023/07/27 09:02:10;;;;;;;8.85;4.65;;;16.70;74.60;;;;;;5038915;28;20025;-80
2023/07/27 09:04:37;;;;;;;8.70;4.13;;;16.70;74.40;;;;;;5052547;28;20087;-81
2023/07/27 09:07:11;;;;;;;13.20;5.40;;;16.70;74.50;;;;;;5052588;28;20414;-81
2023/07/27 09:09:39;;;;;;;13.00;5.72;;;16.70;74.20;;;;;;5052652;28;20047;-81
2023/07/27 09:12:07;;;;;;;6.50;3.80;;;16.60;74.30;;;;;;5052497;28;20032;-81
2023/07/27 09:14:38;;;;;;;9.75;4.20;;;16.60;74.20;;;;;;5052571;28;20024;-82
2023/07/27 09:17:07;;;;;;;10.73;5.05;;;16.60;74.00;;;;;;5050895;28;20081;-82
2023/07/27 09:19:37;;;;;;;10.75;5.20;;;16.60;74.20;;;;;;5051486;28;20030;-81
2023/07/27 09:22:05;;;;;;;11.85;5.53;;;16.50;74.00;;;;;;5052487;28;20418;-80
2023/07/27 09:24:33;;;;;;;15.45;5.60;;;16.50;74.10;;;;;;5050960;28;20510;-81
2023/07/27 09:27:02;;;;;;;13.88;4.95;;;16.50;74.20;;;;;;5050422;28;20044;-79
2023/07/27 09:29:30;;;;;;;12.70;5.43;;;16.60;73.20;;;;;;5051317;28;20044;-80
2023/07/27 09:31:58;;;;;;;13.88;5.32;;;16.50;73.10;;;;;;5052310;28;20035;-81
2023/07/27 09:34:29;;;;;;;9.38;5.10;;;16.50;73.10;;;;;;5052367;28;20036;-77
2023/07/27 09:36:57;;;;;;;14.40;4.63;;;16.50;73.00;;;;;;5051289;28;20040;-79
2023/07/27 09:39:26;;;;;;;13.25;5.20;;;16.50;73.00;;;;;;5050198;28;20480;-81
2023/07/27 09:41:54;;;;;;;9.27;5.18;;;16.50;72.60;;;;;;5052044;28;20198;-80
2023/07/27 09:44:22;;;;;;;10.40;4.60;;;16.50;72.40;;;;;;5052238;28;20391;-80
2023/07/27 09:46:50;;;;;;;7.78;4.60;;;16.50;72.30;;;;;;5052337;28;20024;-82
2023/07/27 09:49:18;;;;;;;12.23;4.65;;;16.40;72.30;;;;;;5051252;28;20386;-82
2023/07/27 09:51:49;;;;;;;6.75;4.32;;;16.40;72.30;;;;;;5051421;28;20031;-82
2023/07/27 09:54:18;;;;;;;7.32;4.50;;;16.40;72.30;;;;;;5051823;28;20060;-79
2023/07/27 09:56:46;;;;;;;9.90;4.57;;;16.30;72.00;;;;;;5049895;28;20037;-79
2023/07/27 09:59:14;;;;;;;8.35;4.00;;;16.30;71.90;;;;;;5049286;28;20512;-81
2023/07/27 10:01:42;;;;;;;11.52;4.50;;;16.30;71.60;;;;;;5051114;28;20040;-80
2023/07/27 10:04:09;;;;;;;6.88;3.67;;;16.30;71.60;;;;;;5054166;28;20087;-80
2023/07/27 10:06:37;;;;;;;6.85;3.88;;;16.30;71.50;;;;;;5055896;28;20519;-81
2023/07/27 10:09:18;;;;;;;6.43;3.80;;;16.20;71.50;;;;;;5054608;28;20032;-80
2023/07/27 10:11:56;;;;;;;4.13;3.03;;;16.30;71.50;;;;;;5047074;28;20088;-79
2023/07/27 10:14:29;;;;;;;7.13;4.20;;;16.20;71.30;;;;;;5041315;28;20021;-81
2023/07/27 10:17:07;;;;;;;6.75;3.33;;;16.20;71.20;;;;;;5055103;28;20041;-78
2023/07/27 10:19:46;;;;;;;6.40;3.90;;;16.20;71.20;;;;;;5055314;28;20371;-77
2023/07/27 10:22:18;;;;;;;9.00;3.80;;;16.20;71.10;;;;;;5055408;28;20371;-80
2023/07/27 10:24:50;;;;;;;7.13;3.65;;;16.20;70.90;;;;;;5054617;28;20396;-78
2023/07/27 10:27:18;;;;;;;7.45;4.80;;;16.20;70.80;;;;;;5053529;28;20021;-81
2023/07/27 10:30:13;;;;;;;7.68;3.60;;;16.20;70.80;;;;;;5055226;28;20036;-80
2023/07/27 10:33:19;;;;;;;7.50;3.15;;;16.20;70.60;;;;;;5049548;28;20045;-80
2023/07/27 10:36:13;;;;;;;7.32;3.35;;;16.20;70.50;;;;;;5055145;28;20163;-81
2023/07/27 10:38:41;;;;;;;11.13;4.85;;;16.20;70.50;;;;;;5052859;28;20044;-80
2023/07/27 10:41:19;;;;;;;6.95;4.97;;;16.20;70.60;;;;;;5054808;28;20021;-77
2023/07/27 10:44:07;;;;;;;10.35;4.03;;;16.20;70.60;;;;;;5034068;28;20091;-77
2023/07/27 10:46:38;;;;;;;6.70;3.78;;;16.20;70.80;;;;;;5033898;28;20065;-81
2023/07/27 10:49:12;;;;;;;9.38;4.10;;;16.20;70.80;;;;;;5055116;28;20036;-81
2023/07/27 10:51:41;;;;;;;7.07;4.55;;;16.20;70.70;;;;;;5055242;28;20021;-82
2023/07/27 10:54:10;;;;;;;10.63;5.30;;;16.10;71.00;;;;;;5052920;28;20490;-80
2023/07/27 10:56:38;;;;;;;9.40;5.07;;;16.10;70.70;;;;;;5053976;28;20387;-80
2023/07/27 10:59:06;;;;;;;6.70;4.85;;;16.10;71.00;;;;;;5054959;28;20031;-79
2023/07/27 11:01:34;;;;;;;7.53;4.40;;;16.10;70.90;;;;;;5054923;28;20057;-81
2023/07/27 11:04:03;;;;;;;8.35;5.38;;;16.10;71.10;;;;;;5053853;28;20021;-80
2023/07/27 11:06:31;;;;;;;7.95;4.85;;;16.10;71.20;;;;;;5054190;28;20045;-78
2023/07/27 11:08:58;;;;;;;4.85;2.97;;;16.10;71.20;;;;;;5054834;28;20025;-80
2023/07/27 11:11:27;;;;;;;5.30;3.10;;;16.10;71.20;;;;;;5053322;28;20487;-79
2023/07/27 11:14:03;;;;;;;7.75;3.65;;;16.00;71.10;;;;;;5052726;28;20037;-79
2023/07/27 11:16:31;;;;;;;6.38;3.80;;;16.00;71.00;;;;;;5053798;28;20055;-80
2023/07/27 11:19:03;;;;;;;6.78;3.83;;;16.00;71.10;;;;;;5054732;28;20021;-80
2023/07/27 11:21:32;;;;;;;5.22;3.25;;;15.90;71.20;;;;;;5054521;28;20025;-78
2023/07/27 11:24:03;;;;;;;7.22;3.55;;;15.90;70.90;;;;;;5053818;28;20025;-79
2023/07/27 11:26:31;;;;;;;8.18;3.55;;;15.90;70.60;;;;;;5053236;28;20032;-79
2023/07/27 11:29:00;;;;;;;5.20;2.83;;;15.90;70.60;;;;;;5054633;28;20051;-79
2023/07/27 11:31:29;;;;;;;9.52;3.20;;;15.90;70.70;;;;;;5058615;28;20071;-80
2023/07/27 11:34:01;;;;;;;8.35;3.90;;;15.90;70.40;;;;;;5055211;28;20223;-79
2023/07/27 11:36:33;;;;;;;6.10;3.70;;;15.80;70.30;;;;;;5053140;28;20037;-80
2023/07/27 11:39:02;;;;;;;7.93;3.60;;;15.70;70.50;;;;;;5051224;28;20025;-80
2023/07/27 11:41:31;;;;;;;13.18;4.78;;;15.70;70.90;;;;;;5048135;28;20021;-80
2023/07/27 11:43:59;;;;;;;7.68;4.38;;;15.60;71.00;;;;;;5050492;28;20025;-80
2023/07/27 11:46:28;;;;;;;8.65;3.63;;;15.50;71.60;;;;;;5052976;28;20429;-80
2023/07/27 11:48:58;;;;;;;11.43;3.83;;;15.40;71.60;;;;;;5054044;28;20021;-81
2023/07/27 11:51:26;;;;;;;7.10;3.10;;;15.30;71.50;;;;;;5053846;28;20021;-80
2023/07/27 11:53:55;;;;;;;8.10;3.90;;;15.20;72.20;;;;;;5069384;28;20029;-79
2023/07/27 11:56:22;;;;;;;9.05;4.10;;;15.30;73.00;;;;;;5052470;28;20033;-79
2023/07/27 11:58:51;;;;;;;6.95;4.00;;;15.20;73.00;;;;;;5054003;28;20025;-80
2023/07/27 12:01:18;;;;;;;7.20;4.25;;;15.20;73.10;;;;;;5054047;28;20044;-78
2023/07/27 12:03:46;;;;;;;8.50;5.13;;;15.20;73.20;;;;;;5054046;28;20025;-81
2023/07/27 12:06:14;;;;;;;7.95;4.35;;;15.10;73.70;;;;;;5052941;28;20024;-80
2023/07/27 12:08:42;;;;;;;9.27;4.65;;;15.00;73.50;;;;;;5052588;28;20475;-79
2023/07/27 12:11:11;;;;;;;10.60;4.40;;;15.00;73.30;;;;;;5047067;28;20397;-79
2023/07/27 12:13:38;;;;;;;11.20;4.85;;;14.90;73.60;;;;;;5048098;28;20061;-78
2023/07/27 12:16:08;;;;;;;7.63;4.15;;;14.90;74.20;;;;;;5049328;28;20403;-78
2023/07/27 12:18:36;;;;;;;7.15;4.25;;;14.90;73.90;;;;;;5052849;28;20029;-79
2023/07/27 12:21:04;;;;;;;6.63;4.30;;;14.90;74.40;;;;;;5051605;28;20033;-79
2023/07/27 12:23:32;;;;;;;8.15;4.32;;;14.90;74.40;;;;;;5060131;28;20021;-80
2023/07/27 12:25:59;;;;;;;8.20;4.60;;;14.80;74.00;;;;;;5052654;28;20407;-81
2023/07/27 12:28:27;;;;;;;7.78;4.07;;;14.70;74.00;;;;;;5053204;28;20029;-80
2023/07/27 12:30:55;;;;;;;7.25;4.18;;;14.80;74.10;;;;;;5050767;28;20400;-81
2023/07/27 12:33:26;;;;;;;8.68;4.38;;;14.70;74.10;;;;;;5049761;28;20033;-80
2023/07/27 12:35:54;;;;;;;8.00;4.22;;;14.70;74.70;;;;;;5050213;28;20476;-80
2023/07/27 12:38:22;;;;;;;6.55;3.92;;;14.70;74.30;;;;;;5052281;28;20044;-77
2023/07/27 12:40:50;;;;;;;7.43;4.43;;;14.70;74.30;;;;;;5049566;28;20021;-79
2023/07/27 12:43:22;;;;;;;5.32;3.40;;;14.70;74.70;;;;;;5051594;28;20051;-80
2023/07/27 12:45:50;;;;;;;6.05;3.70;;;14.70;74.60;;;;;;5049409;28;20017;-79
2023/07/27 12:48:18;;;;;;;8.35;3.95;;;14.60;74.70;;;;;;5051242;28;20028;-80
2023/07/27 12:50:46;;;;;;;7.75;4.00;;;14.60;74.60;;;;;;5056421;28;20453;-79
2023/07/27 12:53:15;;;;;;;10.35;4.22;;;14.60;74.60;;;;;;5047740;28;20025;-80
2023/07/27 12:55:42;;;;;;;8.18;4.00;;;14.50;74.60;;;;;;5049888;28;20517;-80